sensor_id;sensor_type;location;lat;lon;timestamp;P1;durP1;ratioP1;P2;durP2;ratioP2
23768;SDS011;12064;50.890;5.424;2023-05-15T00:06:21;5.68;;;5.28;;
23768;SDS011;12064;50.890;5.424;2023-05-15T00:15:12;5.63;;;5.20;;
23768;SDS011;12064;50.890;5.424;2023-05-15T00:24:03;5.70;;;5.30;;
23768;SDS011;12064;50.890;5.424;2023-05-15T00:32:53;6.20;;;5.70;;
23768;SDS011;12064;50.890;5.424;2023-05-15T00:41:44;5.78;;;5.30;;
23768;SDS011;12064;50.890;5.424;2023-05-15T00:50:38;5.80;;;5.30;;
23768;SDS011;12064;50.890;5.424;2023-05-15T00:59:30;5.68;;;5.28;;
23768;SDS011;12064;50.890;5.424;2023-05-15T01:17:23;5.72;;;5.22;;
23768;SDS011;12064;50.890;5.424;2023-05-15T01:44:25;5.60;;;5.13;;
23768;SDS011;12064;50.890;5.424;2023-05-15T01:53:21;5.72;;;5.32;;
23768;SDS011;12064;50.890;5.424;2023-05-15T02:02:13;5.72;;;5.32;;
23768;SDS011;12064;50.890;5.424;2023-05-15T02:11:05;5.63;;;5.22;;
23768;SDS011;12064;50.890;5.424;2023-05-15T02:19:57;5.45;;;5.05;;
23768;SDS011;12064;50.890;5.424;2023-05-15T02:37:45;5.85;;;5.40;;
23768;SDS011;12064;50.890;5.424;2023-05-15T02:46:39;6.03;;;5.53;;
23768;SDS011;12064;50.890;5.424;2023-05-15T02:55:30;5.68;;;5.28;;
23768;SDS011;12064;50.890;5.424;2023-05-15T03:04:21;6.10;;;5.57;;
23768;SDS011;12064;50.890;5.424;2023-05-15T03:13:12;5.70;;;5.30;;
23768;SDS011;12064;50.890;5.424;2023-05-15T03:22:03;5.60;;;5.20;;
23768;SDS011;12064;50.890;5.424;2023-05-15T03:30:53;5.45;;;5.05;;
23768;SDS011;12064;50.890;5.424;2023-05-15T03:39:44;5.70;;;5.30;;
23768;SDS011;12064;50.890;5.424;2023-05-15T03:48:35;5.57;;;5.17;;
23768;SDS011;12064;50.890;5.424;2023-05-15T03:57:26;5.77;;;5.27;;
23768;SDS011;12064;50.890;5.424;2023-05-15T04:06:18;5.45;;;5.05;;
23768;SDS011;12064;50.890;5.424;2023-05-15T04:15:42;5.45;;;4.95;;
23768;SDS011;12064;50.890;5.424;2023-05-15T04:24:26;5.30;;;4.90;;
23768;SDS011;12064;50.890;5.424;2023-05-15T04:33:16;5.43;;;4.97;;
23768;SDS011;12064;50.890;5.424;2023-05-15T04:42:10;6.13;;;5.63;;
23768;SDS011;12064;50.890;5.424;2023-05-15T04:51:01;5.32;;;4.90;;
23768;SDS011;12064;50.890;5.424;2023-05-15T04:59:51;5.77;;;5.20;;
23768;SDS011;12064;50.890;5.424;2023-05-15T05:08:42;6.00;;;5.40;;
23768;SDS011;12064;50.890;5.424;2023-05-15T05:17:33;5.60;;;5.10;;
23768;SDS011;12064;50.890;5.424;2023-05-15T05:26:23;6.53;;;5.93;;
23768;SDS011;12064;50.890;5.424;2023-05-15T05:35:15;6.05;;;5.57;;
23768;SDS011;12064;50.890;5.424;2023-05-15T05:44:11;10.90;;;9.80;;
23768;SDS011;12064;50.890;5.424;2023-05-15T05:53:02;13.30;;;12.00;;
23768;SDS011;12064;50.890;5.424;2023-05-15T06:01:53;15.57;;;13.13;;
23768;SDS011;12064;50.890;5.424;2023-05-15T06:10:43;14.77;;;13.37;;
23768;SDS011;12064;50.890;5.424;2023-05-15T06:19:34;10.35;;;9.35;;
23768;SDS011;12064;50.890;5.424;2023-05-15T06:28:25;10.63;;;8.93;;
23768;SDS011;12064;50.890;5.424;2023-05-15T06:37:15;13.82;;;9.38;;
23768;SDS011;12064;50.890;5.424;2023-05-15T06:46:06;14.43;;;8.77;;
23768;SDS011;12064;50.890;5.424;2023-05-15T06:54:57;13.23;;;8.40;;
23768;SDS011;12064;50.890;5.424;2023-05-15T07:03:47;12.30;;;8.80;;
23768;SDS011;12064;50.890;5.424;2023-05-15T07:12:38;12.93;;;8.90;;
23768;SDS011;12064;50.890;5.424;2023-05-15T07:21:29;12.07;;;9.67;;
23768;SDS011;12064;50.890;5.424;2023-05-15T07:30:19;13.15;;;9.40;;
23768;SDS011;12064;50.890;5.424;2023-05-15T07:39:10;14.00;;;9.00;;
23768;SDS011;12064;50.890;5.424;2023-05-15T07:48:18;11.82;;;8.32;;
23768;SDS011;12064;50.890;5.424;2023-05-15T07:57:10;14.57;;;8.68;;
23768;SDS011;12064;50.890;5.424;2023-05-15T08:06:01;13.35;;;9.45;;
23768;SDS011;12064;50.890;5.424;2023-05-15T08:14:53;11.13;;;9.73;;
23768;SDS011;12064;50.890;5.424;2023-05-15T08:23:44;16.63;;;14.93;;
23768;SDS011;12064;50.890;5.424;2023-05-15T08:32:37;14.98;;;13.38;;
23768;SDS011;12064;50.890;5.424;2023-05-15T08:41:31;17.13;;;15.43;;
23768;SDS011;12064;50.890;5.424;2023-05-15T08:50:27;14.88;;;13.30;;
23768;SDS011;12064;50.890;5.424;2023-05-15T08:59:19;15.07;;;13.48;;
23768;SDS011;12064;50.890;5.424;2023-05-15T09:08:10;31.90;;;23.52;;
23768;SDS011;12064;50.890;5.424;2023-05-15T09:17:01;32.75;;;28.58;;
23768;SDS011;12064;50.890;5.424;2023-05-15T09:25:52;34.03;;;29.03;;
23768;SDS011;12064;50.890;5.424;2023-05-15T09:34:47;30.75;;;25.77;;
23768;SDS011;12064;50.890;5.424;2023-05-15T09:43:38;31.60;;;27.80;;
23768;SDS011;12064;50.890;5.424;2023-05-15T09:52:32;31.50;;;28.20;;
23768;SDS011;12064;50.890;5.424;2023-05-15T10:01:23;35.00;;;28.88;;
23768;SDS011;12064;50.890;5.424;2023-05-15T10:10:16;33.05;;;28.83;;
23768;SDS011;12064;50.890;5.424;2023-05-15T10:19:07;29.80;;;26.55;;
23768;SDS011;12064;50.890;5.424;2023-05-15T10:28:00;27.02;;;23.25;;
23768;SDS011;12064;50.890;5.424;2023-05-15T10:36:52;24.23;;;21.63;;
23768;SDS011;12064;50.890;5.424;2023-05-15T10:45:44;18.83;;;16.88;;
23768;SDS011;12064;50.890;5.424;2023-05-15T10:54:36;18.73;;;16.67;;
23768;SDS011;12064;50.890;5.424;2023-05-15T11:03:34;16.80;;;14.93;;
23768;SDS011;12064;50.890;5.424;2023-05-15T11:12:27;15.23;;;13.63;;
23768;SDS011;12064;50.890;5.424;2023-05-15T11:21:46;16.42;;;14.07;;
23768;SDS011;12064;50.890;5.424;2023-05-15T11:30:42;16.00;;;14.40;;
23768;SDS011;12064;50.890;5.424;2023-05-15T11:39:37;14.65;;;13.25;;
23768;SDS011;12064;50.890;5.424;2023-05-15T11:48:32;14.82;;;13.18;;
23768;SDS011;12064;50.890;5.424;2023-05-15T11:57:24;14.35;;;12.90;;
23768;SDS011;12064;50.890;5.424;2023-05-15T12:06:14;15.13;;;12.90;;
23768;SDS011;12064;50.890;5.424;2023-05-15T12:15:09;14.07;;;12.63;;
23768;SDS011;12064;50.890;5.424;2023-05-15T12:24:01;14.25;;;12.48;;
23768;SDS011;12064;50.890;5.424;2023-05-15T12:32:51;13.67;;;12.47;;
23768;SDS011;12064;50.890;5.424;2023-05-15T12:41:42;13.60;;;12.20;;
23768;SDS011;12064;50.890;5.424;2023-05-15T12:50:34;13.45;;;12.15;;
23768;SDS011;12064;50.890;5.424;2023-05-15T12:59:25;13.30;;;12.10;;
23768;SDS011;12064;50.890;5.424;2023-05-15T13:08:16;14.00;;;12.70;;
23768;SDS011;12064;50.890;5.424;2023-05-15T13:17:07;13.27;;;11.90;;
23768;SDS011;12064;50.890;5.424;2023-05-15T13:25:57;13.73;;;12.17;;
23768;SDS011;12064;50.890;5.424;2023-05-15T13:34:48;13.20;;;11.90;;
23768;SDS011;12064;50.890;5.424;2023-05-15T13:43:39;13.13;;;11.85;;
23768;SDS011;12064;50.890;5.424;2023-05-15T13:52:30;13.27;;;11.97;;
23768;SDS011;12064;50.890;5.424;2023-05-15T14:01:20;13.07;;;11.63;;
23768;SDS011;12064;50.890;5.424;2023-05-15T14:10:11;12.70;;;11.50;;
23768;SDS011;12064;50.890;5.424;2023-05-15T14:19:02;13.60;;;12.30;;
23768;SDS011;12064;50.890;5.424;2023-05-15T14:27:52;15.82;;;12.98;;
23768;SDS011;12064;50.890;5.424;2023-05-15T14:36:43;11.90;;;10.80;;
23768;SDS011;12064;50.890;5.424;2023-05-15T14:45:35;12.55;;;11.35;;
23768;SDS011;12064;50.890;5.424;2023-05-15T14:54:32;13.15;;;10.63;;
23768;SDS011;12064;50.890;5.424;2023-05-15T15:03:23;11.38;;;10.38;;
23768;SDS011;12064;50.890;5.424;2023-05-15T15:12:13;11.20;;;10.20;;
23768;SDS011;12064;50.890;5.424;2023-05-15T15:21:04;11.40;;;10.40;;
23768;SDS011;12064;50.890;5.424;2023-05-15T15:29:55;10.88;;;9.90;;
23768;SDS011;12064;50.890;5.424;2023-05-15T15:38:46;11.10;;;10.10;;
23768;SDS011;12064;50.890;5.424;2023-05-15T15:47:36;11.00;;;9.90;;
23768;SDS011;12064;50.890;5.424;2023-05-15T15:56:27;10.75;;;9.75;;
23768;SDS011;12064;50.890;5.424;2023-05-15T16:05:18;10.97;;;9.97;;
23768;SDS011;12064;50.890;5.424;2023-05-15T16:14:08;10.85;;;9.85;;
23768;SDS011;12064;50.890;5.424;2023-05-15T16:22:59;10.00;;;9.10;;
23768;SDS011;12064;50.890;5.424;2023-05-15T16:31:50;10.60;;;9.60;;
23768;SDS011;12064;50.890;5.424;2023-05-15T16:40:41;10.02;;;9.02;;
23768;SDS011;12064;50.890;5.424;2023-05-15T16:49:32;9.93;;;9.02;;
23768;SDS011;12064;50.890;5.424;2023-05-15T16:58:23;9.33;;;8.53;;
23768;SDS011;12064;50.890;5.424;2023-05-15T17:07:13;9.63;;;8.77;;
23768;SDS011;12064;50.890;5.424;2023-05-15T17:16:04;10.10;;;9.10;;
23768;SDS011;12064;50.890;5.424;2023-05-15T17:24:55;9.57;;;8.77;;
23768;SDS011;12064;50.890;5.424;2023-05-15T17:33:46;9.35;;;8.50;;
23768;SDS011;12064;50.890;5.424;2023-05-15T17:42:37;9.57;;;8.77;;
23768;SDS011;12064;50.890;5.424;2023-05-15T17:51:28;9.18;;;8.38;;
23768;SDS011;12064;50.890;5.424;2023-05-15T18:00:18;10.03;;;9.13;;
23768;SDS011;12064;50.890;5.424;2023-05-15T18:09:09;10.10;;;9.20;;
23768;SDS011;12064;50.890;5.424;2023-05-15T18:18:00;9.55;;;8.73;;
23768;SDS011;12064;50.890;5.424;2023-05-15T18:26:51;9.60;;;8.70;;
23768;SDS011;12064;50.890;5.424;2023-05-15T18:35:42;9.13;;;8.23;;
23768;SDS011;12064;50.890;5.424;2023-05-15T18:44:32;9.23;;;8.43;;
23768;SDS011;12064;50.890;5.424;2023-05-15T18:53:24;9.05;;;8.15;;
23768;SDS011;12064;50.890;5.424;2023-05-15T19:02:15;9.47;;;8.57;;
23768;SDS011;12064;50.890;5.424;2023-05-15T19:11:05;8.80;;;7.97;;
23768;SDS011;12064;50.890;5.424;2023-05-15T19:19:57;8.63;;;7.82;;
23768;SDS011;12064;50.890;5.424;2023-05-15T19:28:48;8.57;;;7.87;;
23768;SDS011;12064;50.890;5.424;2023-05-15T19:37:39;8.48;;;7.75;;
23768;SDS011;12064;50.890;5.424;2023-05-15T19:46:29;8.25;;;7.55;;
23768;SDS011;12064;50.890;5.424;2023-05-15T19:55:20;8.48;;;7.78;;
23768;SDS011;12064;50.890;5.424;2023-05-15T20:04:11;8.27;;;7.57;;
23768;SDS011;12064;50.890;5.424;2023-05-15T20:13:02;8.45;;;7.75;;
23768;SDS011;12064;50.890;5.424;2023-05-15T20:21:53;7.90;;;7.20;;
23768;SDS011;12064;50.890;5.424;2023-05-15T20:30:46;8.27;;;7.57;;
23768;SDS011;12064;50.890;5.424;2023-05-15T20:39:37;7.97;;;7.28;;
23768;SDS011;12064;50.890;5.424;2023-05-15T20:48:27;7.60;;;6.88;;
23768;SDS011;12064;50.890;5.424;2023-05-15T20:57:18;7.53;;;6.83;;
23768;SDS011;12064;50.890;5.424;2023-05-15T21:06:09;7.63;;;6.93;;
23768;SDS011;12064;50.890;5.424;2023-05-15T21:15:00;8.35;;;7.55;;
23768;SDS011;12064;50.890;5.424;2023-05-15T21:23:51;8.90;;;7.78;;
23768;SDS011;12064;50.890;5.424;2023-05-15T21:32:42;8.60;;;7.10;;
23768;SDS011;12064;50.890;5.424;2023-05-15T21:41:36;7.20;;;6.47;;
23768;SDS011;12064;50.890;5.424;2023-05-15T21:50:26;8.18;;;7.38;;
23768;SDS011;12064;50.890;5.424;2023-05-15T21:59:20;7.18;;;6.50;;
23768;SDS011;12064;50.890;5.424;2023-05-15T22:08:11;7.22;;;6.60;;
23768;SDS011;12064;50.890;5.424;2023-05-15T22:17:02;7.18;;;6.50;;
23768;SDS011;12064;50.890;5.424;2023-05-15T22:25:53;7.30;;;6.60;;
23768;SDS011;12064;50.890;5.424;2023-05-15T22:34:44;7.38;;;6.65;;
23768;SDS011;12064;50.890;5.424;2023-05-15T22:43:35;7.88;;;7.05;;
23768;SDS011;12064;50.890;5.424;2023-05-15T22:52:26;6.97;;;6.28;;
23768;SDS011;12064;50.890;5.424;2023-05-15T23:01:18;7.22;;;6.53;;
23768;SDS011;12064;50.890;5.424;2023-05-15T23:10:11;7.65;;;6.47;;
23768;SDS011;12064;50.890;5.424;2023-05-15T23:19:02;7.03;;;6.32;;
23768;SDS011;12064;50.890;5.424;2023-05-15T23:27:53;6.85;;;6.25;;
23768;SDS011;12064;50.890;5.424;2023-05-15T23:36:46;6.68;;;6.07;;
23768;SDS011;12064;50.890;5.424;2023-05-15T23:45:37;6.43;;;5.82;;
23768;SDS011;12064;50.890;5.424;2023-05-15T23:54:28;6.68;;;6.00;;
